createdAt,value
2022-08-05T00:01:28.358Z,11.20
2022-08-05T00:06:35.910Z,13.02
2022-08-05T00:11:48.304Z,11.30
2022-08-05T00:16:53.972Z,10.93
2022-08-05T00:21:56.587Z,11.07
2022-08-05T00:27:36.589Z,9.13
2022-08-05T00:32:51.484Z,8.77
2022-08-05T00:37:57.316Z,10.50
2022-08-05T00:43:02.035Z,9.27
2022-08-05T00:48:05.970Z,8.75
2022-08-05T00:59:19.730Z,8.85
2022-08-05T01:04:29.723Z,8.95
2022-08-05T01:09:32.433Z,9.50
2022-08-05T01:14:46.294Z,10.80
2022-08-05T01:20:01.548Z,9.25
2022-08-05T01:25:39.789Z,8.23
2022-08-05T01:30:56.328Z,8.70
2022-08-05T01:35:59.752Z,11.25
2022-08-05T01:41:06.680Z,10.70
2022-08-05T01:46:16.284Z,9.13
2022-08-05T01:51:19.683Z,10.15
2022-08-05T01:58:09.431Z,9.30
2022-08-05T02:01:50.323Z,8.00
2022-08-05T02:06:52.818Z,8.63
2022-08-05T02:12:09.987Z,10.25
2022-08-05T02:18:33.259Z,8.77
2022-08-05T02:22:58.843Z,10.73
2022-08-05T02:28:08.906Z,8.32
2022-08-05T02:33:12.303Z,8.02
2022-08-05T02:38:19.515Z,8.40
2022-08-05T02:43:22.392Z,14.60
2022-08-05T02:48:29.303Z,9.13
2022-08-05T02:53:39.281Z,9.65
2022-08-05T02:58:44.223Z,9.95
2022-08-05T03:09:06.132Z,9.25
2022-08-05T03:14:13.455Z,9.30
2022-08-05T03:19:20.351Z,8.80
2022-08-05T03:24:43.500Z,9.10
2022-08-05T03:30:08.362Z,10.60
2022-08-05T03:35:11.598Z,11.82
2022-08-05T03:40:31.440Z,8.80
2022-08-05T03:45:57.727Z,13.25
2022-08-05T03:52:38.510Z,9.82
2022-08-05T03:56:46.738Z,10.05
2022-08-05T04:01:51.293Z,16.73
2022-08-05T04:06:58.714Z,12.05
2022-08-05T04:12:05.599Z,9.98
2022-08-05T04:17:55.593Z,11.07
2022-08-05T04:22:58.585Z,8.43
2022-08-05T04:28:11.060Z,7.68
2022-08-05T04:33:16.296Z,8.43
2022-08-05T04:38:39.859Z,7.72
2022-08-05T04:43:48.080Z,10.00
2022-08-05T04:48:51.691Z,8.45
2022-08-05T04:53:54.090Z,8.50
2022-08-05T05:04:00.840Z,8.43
2022-08-05T05:09:05.593Z,7.65
2022-08-05T05:14:16.246Z,10.40
2022-08-05T05:19:23.659Z,7.22
2022-08-05T05:24:56.381Z,9.57
2022-08-05T05:30:04.913Z,8.27
2022-08-05T05:35:10.074Z,8.55
2022-08-05T05:40:32.290Z,8.10
2022-08-05T05:45:35.791Z,7.82
2022-08-05T05:50:44.384Z,7.10
2022-08-05T05:55:52.045Z,9.23
2022-08-05T06:01:13.384Z,7.60
2022-08-05T06:06:17.696Z,10.32
2022-08-05T06:16:33.047Z,7.00
2022-08-05T06:21:49.811Z,7.82
2022-08-05T06:26:53.545Z,7.82
2022-08-05T06:31:59.425Z,8.43
2022-08-05T06:37:02.323Z,6.60
2022-08-05T06:42:06.196Z,7.43
2022-08-05T06:47:10.279Z,12.98
2022-08-05T06:52:36.599Z,8.10
2022-08-05T06:58:03.493Z,8.77
2022-08-05T07:03:03.511Z,10.07
2022-08-05T07:08:11.268Z,10.80
2022-08-05T07:13:57.104Z,9.00
2022-08-05T07:18:55.686Z,6.68
2022-08-05T07:23:58.387Z,6.65
2022-08-05T07:29:04.011Z,7.65
2022-08-05T07:34:13.883Z,6.35
2022-08-05T07:39:24.378Z,10.38
2022-08-05T07:44:39.079Z,6.30
2022-08-05T07:49:54.304Z,5.63
2022-08-05T07:54:57.303Z,5.75
2022-08-05T08:00:05.740Z,6.25
2022-08-05T08:05:17.473Z,5.00
2022-08-05T08:10:20.451Z,5.80
2022-08-05T08:16:33.469Z,7.70
2022-08-05T08:21:02.897Z,4.90
2022-08-05T08:26:07.380Z,8.90
2022-08-05T08:31:14.876Z,5.38
2022-08-05T08:36:38.691Z,9.38
2022-08-05T08:41:51.945Z,5.10
2022-08-05T08:47:03.364Z,5.82
2022-08-05T08:52:26.767Z,6.15
2022-08-05T08:57:42.314Z,7.47
2022-08-05T09:09:08.007Z,4.50
2022-08-05T09:14:57.860Z,5.43
2022-08-05T09:20:01.682Z,4.50
2022-08-05T09:25:13.760Z,4.75
2022-08-05T09:30:35.098Z,5.63
2022-08-05T09:36:11.617Z,6.88
2022-08-05T09:41:19.604Z,6.43
2022-08-05T09:46:28.335Z,5.07
2022-08-05T09:51:38.294Z,5.10
2022-08-05T09:56:52.309Z,5.90
2022-08-05T10:01:59.549Z,4.75
2022-08-05T10:07:25.039Z,5.10
2022-08-05T10:12:33.586Z,5.20
2022-08-05T10:17:40.670Z,4.78
2022-08-05T10:22:50.979Z,4.50
2022-08-05T10:28:13.576Z,5.88
2022-08-05T10:33:17.761Z,4.50
2022-08-05T10:38:25.568Z,5.65
2022-08-05T10:43:48.626Z,7.00
2022-08-05T10:49:02.754Z,5.25
2022-08-05T10:54:28.250Z,5.60
2022-08-05T11:00:04.398Z,4.78
2022-08-05T11:04:56.223Z,7.10
2022-08-05T11:10:03.638Z,5.30
2022-08-05T11:15:20.987Z,5.20
2022-08-05T11:20:44.330Z,5.65
2022-08-05T11:26:11.303Z,4.63
2022-08-05T11:31:19.601Z,4.95
2022-08-05T11:36:44.550Z,5.63
2022-08-05T11:42:01.249Z,3.75
2022-08-05T11:47:11.981Z,3.70
2022-08-05T11:52:29.171Z,5.50
2022-08-05T11:58:08.624Z,3.38
2022-08-05T12:02:54.593Z,5.00
2022-08-05T12:08:07.982Z,3.67
2022-08-05T12:13:27.855Z,3.15
2022-08-05T12:18:41.449Z,3.75
2022-08-05T12:24:00.182Z,3.35
2022-08-05T12:29:15.842Z,3.42
2022-08-05T12:34:23.471Z,3.05
2022-08-05T12:39:28.014Z,3.28
2022-08-05T12:50:04.221Z,6.32
2022-08-05T12:55:22.258Z,5.57
2022-08-05T13:02:00.179Z,3.00
2022-08-05T13:05:53.733Z,3.40
2022-08-05T13:11:01.275Z,3.10
2022-08-05T13:16:04.110Z,2.95
2022-08-05T13:21:10.000Z,2.80
2022-08-05T13:26:17.283Z,2.92
2022-08-05T13:32:02.813Z,2.88
2022-08-05T13:36:50.211Z,3.30
2022-08-05T13:41:58.862Z,3.33
2022-08-05T13:47:35.409Z,3.83
2022-08-05T13:52:50.025Z,3.72
2022-08-05T13:57:56.298Z,5.15
2022-08-05T14:03:01.195Z,3.92
2022-08-05T14:08:20.389Z,3.53
2022-08-05T14:13:28.455Z,4.47
2022-08-05T14:18:35.335Z,6.80
2022-08-05T14:23:42.595Z,7.47
2022-08-05T14:28:51.898Z,6.10
2022-08-05T14:33:59.771Z,7.90
2022-08-05T14:39:24.022Z,7.13
2022-08-05T14:44:46.522Z,6.72
2022-08-05T14:49:59.211Z,8.98
2022-08-05T14:55:06.504Z,6.38
2022-08-05T15:00:09.571Z,7.25
2022-08-05T15:05:14.185Z,6.70
2022-08-05T15:10:17.795Z,11.05
2022-08-05T15:15:55.369Z,12.13
2022-08-05T15:20:58.487Z,7.78
2022-08-05T15:26:10.599Z,5.55
2022-08-05T15:31:13.526Z,4.80
2022-08-05T15:36:24.652Z,10.13
2022-08-05T15:41:57.533Z,5.27
2022-08-05T15:47:08.879Z,5.25
2022-08-05T15:52:29.357Z,4.65
2022-08-05T15:57:38.078Z,8.60
2022-08-05T16:02:48.964Z,6.78
2022-08-05T16:07:53.433Z,6.97
2022-08-05T16:12:56.324Z,6.43
2022-08-05T16:18:00.108Z,4.60
2022-08-05T16:23:04.168Z,4.75
2022-08-05T16:28:10.385Z,4.65
2022-08-05T16:33:13.361Z,5.75
2022-08-05T16:38:25.256Z,7.60
2022-08-05T16:43:32.598Z,4.72
2022-08-05T16:48:36.567Z,5.10
2022-08-05T16:54:03.279Z,4.25
2022-08-05T16:59:07.719Z,5.13
2022-08-05T17:04:11.650Z,7.40
2022-08-05T17:09:17.944Z,4.45
2022-08-05T17:14:34.150Z,4.05
2022-08-05T17:19:39.406Z,4.03
2022-08-05T17:24:46.434Z,5.05
2022-08-05T17:30:12.000Z,4.07
2022-08-05T17:35:21.909Z,5.25
2022-08-05T17:40:25.684Z,3.83
2022-08-05T17:45:38.034Z,3.03
2022-08-05T17:50:42.193Z,3.30
2022-08-05T17:55:45.863Z,2.88
2022-08-05T18:00:50.539Z,3.17
2022-08-05T18:05:54.293Z,2.90
2022-08-05T18:10:56.872Z,3.72
2022-08-05T18:15:59.558Z,3.30
2022-08-05T18:21:05.386Z,2.78
2022-08-05T18:26:18.776Z,18.00
2022-08-05T18:31:23.686Z,5.45
2022-08-05T18:36:28.228Z,3.58
2022-08-05T18:41:57.176Z,3.42
2022-08-05T18:46:53.852Z,2.67
2022-08-05T18:52:15.999Z,2.97
2022-08-05T19:02:28.198Z,4.50
2022-08-05T19:07:45.069Z,3.58
2022-08-05T19:12:48.744Z,2.50
2022-08-05T19:18:08.007Z,2.97
2022-08-05T19:24:06.252Z,2.70
2022-08-05T19:28:35.273Z,3.00
2022-08-05T19:33:40.648Z,3.40
2022-08-05T19:38:51.692Z,3.20
2022-08-05T19:44:06.369Z,4.93
2022-08-05T19:49:17.004Z,5.55
2022-08-05T19:54:27.197Z,3.90
2022-08-05T20:00:02.072Z,5.00
2022-08-05T20:04:59.873Z,4.03
2022-08-05T20:10:13.135Z,3.80
2022-08-05T20:15:22.992Z,3.85
2022-08-05T20:20:47.406Z,3.28
2022-08-05T20:25:52.329Z,3.58
2022-08-05T20:30:59.286Z,4.03
2022-08-05T20:36:03.638Z,4.40
2022-08-05T20:41:08.089Z,4.00
2022-08-05T20:46:18.280Z,3.90
2022-08-05T20:51:28.892Z,5.18
2022-08-05T20:56:40.114Z,4.80
2022-08-05T21:01:45.212Z,5.00
2022-08-05T21:06:47.598Z,4.32
2022-08-05T21:12:08.852Z,4.90
2022-08-05T21:17:15.547Z,5.25
2022-08-05T21:22:23.418Z,4.80
2022-08-05T21:27:27.091Z,6.95
2022-08-05T21:32:30.828Z,4.68
2022-08-05T21:37:35.017Z,4.10
2022-08-05T21:42:44.712Z,4.22
2022-08-05T21:47:56.288Z,6.30
2022-08-05T21:53:16.424Z,10.20
2022-08-05T21:58:28.746Z,9.82
2022-08-05T22:03:49.007Z,9.65
2022-08-05T22:08:56.912Z,13.25
2022-08-05T22:14:19.921Z,11.18
2022-08-05T22:20:00.918Z,12.07
2022-08-05T22:25:03.531Z,11.98
2022-08-05T22:30:18.245Z,10.63
2022-08-05T22:35:22.540Z,12.13
2022-08-05T22:40:30.754Z,10.48
2022-08-05T22:45:33.215Z,11.95
2022-08-05T22:50:35.475Z,13.02
2022-08-05T22:55:56.599Z,15.13
2022-08-05T23:01:00.097Z,11.93
2022-08-05T23:06:02.442Z,11.32
2022-08-05T23:11:05.078Z,13.23
2022-08-05T23:16:11.091Z,9.38
2022-08-05T23:21:16.509Z,6.65
2022-08-05T23:26:20.167Z,4.97
2022-08-05T23:31:24.232Z,6.00
2022-08-05T23:36:28.391Z,4.30
2022-08-05T23:41:48.815Z,8.02
2022-08-05T23:46:54.012Z,4.53
2022-08-05T23:52:17.475Z,3.05
2022-08-05T23:57:19.890Z,3.10
